Temple, Pennsylvania
Current Conditions -  °F | °C
As of 11:54 PM on Tuesday 25 Nov 2014 (Local Time) from KRDG Reporting Station
Clear Clear  
Wind Chill: 38°   Ceiling: Unl
Heat Index: 38°   Visibility: 10mi
Dew Point: 32°   Wind: 3mph
Humidity: 79%   Direction: 40°NE
Pressure: 30.16"   Gusts: NA
Location:  40.41°N, 75.92°W
Report Text: KRDG 260454Z 04003KT 10SM CLR 03/00 A3016 RMK AO2 SLP220 T00330000 401670033
Loading
Personal Weather Stations






























Interactive Weather Map New forecast layout! Learn more

10-Day Weather Forecast

Advertisements
Track Severe Weather on mobile